sensor_id;sensor_type;location;lat;lon;timestamp;temperature;humidity
7998;DHT22;4044;49.814;7.828;2022-09-09T00:01:37;15.50;99.90
7998;DHT22;4044;49.814;7.828;2022-09-09T00:06:34;15.30;99.90
7998;DHT22;4044;49.814;7.828;2022-09-09T00:09:02;15.30;99.90
7998;DHT22;4044;49.814;7.828;2022-09-09T00:11:46;15.20;99.90
7998;DHT22;4044;49.814;7.828;2022-09-09T00:14:25;15.20;99.90
7998;DHT22;4044;49.814;7.828;2022-09-09T00:17:01;15.20;99.90
7998;DHT22;4044;49.814;7.828;2022-09-09T00:19:39;15.10;99.90
7998;DHT22;4044;49.814;7.828;2022-09-09T00:22:19;15.10;99.90
7998;DHT22;4044;49.814;7.828;2022-09-09T00:24:54;15.10;99.90
7998;DHT22;4044;49.814;7.828;2022-09-09T00:27:33;15.10;99.90
7998;DHT22;4044;49.814;7.828;2022-09-09T00:30:18;15.10;99.90
7998;DHT22;4044;49.814;7.828;2022-09-09T00:33:00;15.10;99.90
7998;DHT22;4044;49.814;7.828;2022-09-09T00:35:36;15.10;99.90
7998;DHT22;4044;49.814;7.828;2022-09-09T00:38:14;15.10;99.90
7998;DHT22;4044;49.814;7.828;2022-09-09T00:43:35;15.30;99.90
7998;DHT22;4044;49.814;7.828;2022-09-09T00:57:03;15.40;99.90
7998;DHT22;4044;49.814;7.828;2022-09-09T00:59:48;15.30;99.90
7998;DHT22;4044;49.814;7.828;2022-09-09T01:02:35;15.40;99.90
7998;DHT22;4044;49.814;7.828;2022-09-09T01:05:26;15.30;99.90
7998;DHT22;4044;49.814;7.828;2022-09-09T01:07:52;15.30;99.90
7998;DHT22;4044;49.814;7.828;2022-09-09T01:10:52;15.30;99.90
7998;DHT22;4044;49.814;7.828;2022-09-09T01:13:30;15.30;99.90
7998;DHT22;4044;49.814;7.828;2022-09-09T01:16:02;15.30;99.90
7998;DHT22;4044;49.814;7.828;2022-09-09T01:18:43;15.30;99.90
7998;DHT22;4044;49.814;7.828;2022-09-09T01:24:19;15.30;99.90
7998;DHT22;4044;49.814;7.828;2022-09-09T01:26:47;15.30;99.90
7998;DHT22;4044;49.814;7.828;2022-09-09T01:29:16;15.30;99.90
7998;DHT22;4044;49.814;7.828;2022-09-09T01:31:52;15.30;99.90
7998;DHT22;4044;49.814;7.828;2022-09-09T01:34:18;15.30;99.90
7998;DHT22;4044;49.814;7.828;2022-09-09T01:36:49;15.30;99.90
7998;DHT22;4044;49.814;7.828;2022-09-09T01:39:17;15.20;99.90
7998;DHT22;4044;49.814;7.828;2022-09-09T01:41:43;15.30;99.90
7998;DHT22;4044;49.814;7.828;2022-09-09T01:44:09;15.30;99.90
7998;DHT22;4044;49.814;7.828;2022-09-09T01:46:35;15.30;99.90
7998;DHT22;4044;49.814;7.828;2022-09-09T01:49:02;15.40;99.90
7998;DHT22;4044;49.814;7.828;2022-09-09T01:51:28;15.40;99.90
7998;DHT22;4044;49.814;7.828;2022-09-09T01:53:54;15.40;99.90
7998;DHT22;4044;49.814;7.828;2022-09-09T01:56:47;15.30;99.90
7998;DHT22;4044;49.814;7.828;2022-09-09T02:04:48;15.10;99.90
7998;DHT22;4044;49.814;7.828;2022-09-09T02:10:36;14.90;99.90
7998;DHT22;4044;49.814;7.828;2022-09-09T02:13:12;14.80;99.90
7998;DHT22;4044;49.814;7.828;2022-09-09T02:16:00;14.80;99.90
7998;DHT22;4044;49.814;7.828;2022-09-09T02:18:35;14.70;99.90
7998;DHT22;4044;49.814;7.828;2022-09-09T02:21:04;14.70;99.90
7998;DHT22;4044;49.814;7.828;2022-09-09T02:23:32;14.70;99.90
7998;DHT22;4044;49.814;7.828;2022-09-09T02:26:00;14.70;99.90
7998;DHT22;4044;49.814;7.828;2022-09-09T02:28:29;14.80;99.90
7998;DHT22;4044;49.814;7.828;2022-09-09T02:30:55;14.80;99.90
7998;DHT22;4044;49.814;7.828;2022-09-09T02:33:26;14.80;99.90
7998;DHT22;4044;49.814;7.828;2022-09-09T02:35:52;14.90;99.90
7998;DHT22;4044;49.814;7.828;2022-09-09T02:38:20;15.00;99.90
7998;DHT22;4044;49.814;7.828;2022-09-09T02:40:46;15.30;99.90
7998;DHT22;4044;49.814;7.828;2022-09-09T02:43:14;15.20;99.90
7998;DHT22;4044;49.814;7.828;2022-09-09T02:45:55;15.10;99.90
7998;DHT22;4044;49.814;7.828;2022-09-09T02:51:17;15.00;99.90
7998;DHT22;4044;49.814;7.828;2022-09-09T02:53:54;14.90;99.90
7998;DHT22;4044;49.814;7.828;2022-09-09T02:56:25;14.80;99.90
7998;DHT22;4044;49.814;7.828;2022-09-09T02:58:53;14.80;99.90
7998;DHT22;4044;49.814;7.828;2022-09-09T03:01:20;14.70;99.90
7998;DHT22;4044;49.814;7.828;2022-09-09T03:03:45;14.60;99.90
7998;DHT22;4044;49.814;7.828;2022-09-09T03:06:11;14.60;99.90
7998;DHT22;4044;49.814;7.828;2022-09-09T03:08:37;14.60;99.90
7998;DHT22;4044;49.814;7.828;2022-09-09T03:11:03;14.60;99.90
7998;DHT22;4044;49.814;7.828;2022-09-09T03:13:29;14.70;99.90
7998;DHT22;4044;49.814;7.828;2022-09-09T03:15:55;14.70;99.90
7998;DHT22;4044;49.814;7.828;2022-09-09T03:18:20;14.80;99.90
7998;DHT22;4044;49.814;7.828;2022-09-09T03:20:46;15.00;99.90
7998;DHT22;4044;49.814;7.828;2022-09-09T03:23:13;15.10;99.90
7998;DHT22;4044;49.814;7.828;2022-09-09T03:25:39;15.10;99.90
7998;DHT22;4044;49.814;7.828;2022-09-09T03:28:11;15.10;99.90
7998;DHT22;4044;49.814;7.828;2022-09-09T03:30:37;15.10;99.90
7998;DHT22;4044;49.814;7.828;2022-09-09T03:33:03;15.10;99.90
7998;DHT22;4044;49.814;7.828;2022-09-09T03:35:29;15.20;99.90
7998;DHT22;4044;49.814;7.828;2022-09-09T03:37:54;15.20;99.90
7998;DHT22;4044;49.814;7.828;2022-09-09T03:40:21;15.30;99.90
7998;DHT22;4044;49.814;7.828;2022-09-09T03:42:46;15.20;99.90
7998;DHT22;4044;49.814;7.828;2022-09-09T03:45:13;15.10;99.90
7998;DHT22;4044;49.814;7.828;2022-09-09T03:47:38;15.10;99.90
7998;DHT22;4044;49.814;7.828;2022-09-09T03:50:05;15.00;99.90
7998;DHT22;4044;49.814;7.828;2022-09-09T03:52:37;14.90;99.90
7998;DHT22;4044;49.814;7.828;2022-09-09T03:55:04;14.80;99.90
7998;DHT22;4044;49.814;7.828;2022-09-09T03:57:30;14.70;99.90
7998;DHT22;4044;49.814;7.828;2022-09-09T03:59:57;14.60;99.90
7998;DHT22;4044;49.814;7.828;2022-09-09T04:02:23;14.60;99.90
7998;DHT22;4044;49.814;7.828;2022-09-09T04:04:49;14.50;99.90
7998;DHT22;4044;49.814;7.828;2022-09-09T04:07:14;14.40;99.90
7998;DHT22;4044;49.814;7.828;2022-09-09T04:09:40;14.40;99.90
7998;DHT22;4044;49.814;7.828;2022-09-09T04:12:05;14.40;99.90
7998;DHT22;4044;49.814;7.828;2022-09-09T04:14:31;14.40;99.90
7998;DHT22;4044;49.814;7.828;2022-09-09T04:16:57;14.40;99.90
7998;DHT22;4044;49.814;7.828;2022-09-09T04:19:24;14.40;99.90
7998;DHT22;4044;49.814;7.828;2022-09-09T04:21:50;14.40;99.90
7998;DHT22;4044;49.814;7.828;2022-09-09T04:24:17;14.50;99.90
7998;DHT22;4044;49.814;7.828;2022-09-09T04:26:43;14.60;99.90
7998;DHT22;4044;49.814;7.828;2022-09-09T04:29:08;14.70;99.90
7998;DHT22;4044;49.814;7.828;2022-09-09T04:31:34;14.80;99.90
7998;DHT22;4044;49.814;7.828;2022-09-09T04:34:00;14.90;99.90
7998;DHT22;4044;49.814;7.828;2022-09-09T04:36:31;14.90;99.90
7998;DHT22;4044;49.814;7.828;2022-09-09T04:38:57;15.00;99.90
7998;DHT22;4044;49.814;7.828;2022-09-09T04:41:22;14.90;99.90
7998;DHT22;4044;49.814;7.828;2022-09-09T04:43:49;14.80;99.90
7998;DHT22;4044;49.814;7.828;2022-09-09T04:46:15;14.80;99.90
7998;DHT22;4044;49.814;7.828;2022-09-09T04:48:42;14.80;99.90
7998;DHT22;4044;49.814;7.828;2022-09-09T04:51:11;14.90;99.90
7998;DHT22;4044;49.814;7.828;2022-09-09T04:53:37;14.90;99.90
7998;DHT22;4044;49.814;7.828;2022-09-09T04:56:08;14.90;99.90
7998;DHT22;4044;49.814;7.828;2022-09-09T04:58:35;14.80;99.90
7998;DHT22;4044;49.814;7.828;2022-09-09T05:01:10;14.70;99.90
7998;DHT22;4044;49.814;7.828;2022-09-09T05:03:35;14.60;99.90
7998;DHT22;4044;49.814;7.828;2022-09-09T05:06:12;14.50;99.90
7998;DHT22;4044;49.814;7.828;2022-09-09T05:08:39;14.50;99.90
7998;DHT22;4044;49.814;7.828;2022-09-09T05:11:25;14.60;99.90
7998;DHT22;4044;49.814;7.828;2022-09-09T05:13:52;14.50;99.90
7998;DHT22;4044;49.814;7.828;2022-09-09T05:16:19;14.50;99.90
7998;DHT22;4044;49.814;7.828;2022-09-09T05:18:45;14.50;99.90
7998;DHT22;4044;49.814;7.828;2022-09-09T05:21:16;14.40;99.90
7998;DHT22;4044;49.814;7.828;2022-09-09T05:23:42;14.40;99.90
7998;DHT22;4044;49.814;7.828;2022-09-09T05:26:11;14.30;99.90
7998;DHT22;4044;49.814;7.828;2022-09-09T05:28:38;14.30;99.90
7998;DHT22;4044;49.814;7.828;2022-09-09T05:31:08;14.40;99.90
7998;DHT22;4044;49.814;7.828;2022-09-09T05:33:35;14.40;99.90
7998;DHT22;4044;49.814;7.828;2022-09-09T05:36:05;14.30;99.90
7998;DHT22;4044;49.814;7.828;2022-09-09T05:38:31;14.50;99.90
7998;DHT22;4044;49.814;7.828;2022-09-09T05:40:58;14.70;99.90
7998;DHT22;4044;49.814;7.828;2022-09-09T05:43:24;14.80;99.90
7998;DHT22;4044;49.814;7.828;2022-09-09T05:46:05;14.90;99.90
7998;DHT22;4044;49.814;7.828;2022-09-09T05:48:32;15.20;99.90
7998;DHT22;4044;49.814;7.828;2022-09-09T05:50:59;15.40;99.90
7998;DHT22;4044;49.814;7.828;2022-09-09T05:53:26;15.60;99.90
7998;DHT22;4044;49.814;7.828;2022-09-09T05:55:59;15.70;99.90
7998;DHT22;4044;49.814;7.828;2022-09-09T05:58:25;16.00;99.90
7998;DHT22;4044;49.814;7.828;2022-09-09T06:00:50;16.10;99.90
7998;DHT22;4044;49.814;7.828;2022-09-09T06:03:16;16.30;99.90
7998;DHT22;4044;49.814;7.828;2022-09-09T06:05:42;16.40;99.90
7998;DHT22;4044;49.814;7.828;2022-09-09T06:08:07;16.40;99.90
7998;DHT22;4044;49.814;7.828;2022-09-09T06:10:33;16.50;99.90
7998;DHT22;4044;49.814;7.828;2022-09-09T06:12:59;16.60;99.90
7998;DHT22;4044;49.814;7.828;2022-09-09T06:15:25;16.80;99.90
7998;DHT22;4044;49.814;7.828;2022-09-09T06:17:55;16.80;99.90
7998;DHT22;4044;49.814;7.828;2022-09-09T06:20:21;16.90;99.90
7998;DHT22;4044;49.814;7.828;2022-09-09T06:22:47;17.10;99.90
7998;DHT22;4044;49.814;7.828;2022-09-09T06:25:14;17.30;99.90
7998;DHT22;4044;49.814;7.828;2022-09-09T06:27:39;17.30;99.90
7998;DHT22;4044;49.814;7.828;2022-09-09T06:30:06;17.50;99.90
7998;DHT22;4044;49.814;7.828;2022-09-09T06:32:32;17.50;99.90
7998;DHT22;4044;49.814;7.828;2022-09-09T06:34:59;17.50;99.90
7998;DHT22;4044;49.814;7.828;2022-09-09T06:37:26;17.50;99.90
7998;DHT22;4044;49.814;7.828;2022-09-09T06:39:52;17.60;99.90
7998;DHT22;4044;49.814;7.828;2022-09-09T06:42:19;17.60;99.90
7998;DHT22;4044;49.814;7.828;2022-09-09T06:44:45;17.50;99.90
7998;DHT22;4044;49.814;7.828;2022-09-09T06:47:10;17.40;99.90
7998;DHT22;4044;49.814;7.828;2022-09-09T06:49:36;17.40;99.90
7998;DHT22;4044;49.814;7.828;2022-09-09T06:52:01;17.50;99.90
7998;DHT22;4044;49.814;7.828;2022-09-09T06:54:27;17.50;99.90
7998;DHT22;4044;49.814;7.828;2022-09-09T06:56:53;17.60;99.90
7998;DHT22;4044;49.814;7.828;2022-09-09T06:59:19;17.60;99.90
7998;DHT22;4044;49.814;7.828;2022-09-09T07:01:45;17.70;99.90
7998;DHT22;4044;49.814;7.828;2022-09-09T07:04:10;17.90;99.90
7998;DHT22;4044;49.814;7.828;2022-09-09T07:06:38;18.10;99.90
7998;DHT22;4044;49.814;7.828;2022-09-09T07:09:07;18.20;99.90
7998;DHT22;4044;49.814;7.828;2022-09-09T07:11:38;18.30;99.90
7998;DHT22;4044;49.814;7.828;2022-09-09T07:14:04;18.40;99.90
7998;DHT22;4044;49.814;7.828;2022-09-09T07:16:30;18.60;99.90
7998;DHT22;4044;49.814;7.828;2022-09-09T07:18:58;18.70;99.90
7998;DHT22;4044;49.814;7.828;2022-09-09T07:21:26;18.80;99.90
7998;DHT22;4044;49.814;7.828;2022-09-09T07:23:52;18.90;99.90
7998;DHT22;4044;49.814;7.828;2022-09-09T07:26:21;18.90;99.90
7998;DHT22;4044;49.814;7.828;2022-09-09T07:28:48;19.00;99.90
7998;DHT22;4044;49.814;7.828;2022-09-09T07:31:34;19.00;99.90
7998;DHT22;4044;49.814;7.828;2022-09-09T07:34:02;19.20;99.90
7998;DHT22;4044;49.814;7.828;2022-09-09T07:36:39;19.40;99.90
7998;DHT22;4044;49.814;7.828;2022-09-09T07:39:07;19.40;99.90
7998;DHT22;4044;49.814;7.828;2022-09-09T07:41:36;19.40;99.90
7998;DHT22;4044;49.814;7.828;2022-09-09T07:44:08;19.30;99.90
7998;DHT22;4044;49.814;7.828;2022-09-09T07:46:35;19.20;99.90
7998;DHT22;4044;49.814;7.828;2022-09-09T07:49:00;19.20;99.90
7998;DHT22;4044;49.814;7.828;2022-09-09T07:51:30;19.10;99.90
7998;DHT22;4044;49.814;7.828;2022-09-09T07:54:00;19.20;99.90
7998;DHT22;4044;49.814;7.828;2022-09-09T07:56:28;19.30;99.90
7998;DHT22;4044;49.814;7.828;2022-09-09T07:58:55;19.70;99.90
7998;DHT22;4044;49.814;7.828;2022-09-09T08:01:38;19.60;99.90
7998;DHT22;4044;49.814;7.828;2022-09-09T08:04:06;18.50;99.90
7998;DHT22;4044;49.814;7.828;2022-09-09T08:06:35;17.70;99.90
7998;DHT22;4044;49.814;7.828;2022-09-09T08:09:01;17.30;99.90
7998;DHT22;4044;49.814;7.828;2022-09-09T08:11:28;16.90;99.90
7998;DHT22;4044;49.814;7.828;2022-09-09T08:13:55;16.90;99.90
7998;DHT22;4044;49.814;7.828;2022-09-09T08:16:23;17.20;99.90
7998;DHT22;4044;49.814;7.828;2022-09-09T08:18:49;17.30;99.90
7998;DHT22;4044;49.814;7.828;2022-09-09T08:21:17;17.50;99.90
7998;DHT22;4044;49.814;7.828;2022-09-09T08:23:45;17.70;99.90
7998;DHT22;4044;49.814;7.828;2022-09-09T08:26:14;18.00;99.90
7998;DHT22;4044;49.814;7.828;2022-09-09T08:28:41;18.20;99.90
7998;DHT22;4044;49.814;7.828;2022-09-09T08:31:20;18.30;99.90
7998;DHT22;4044;49.814;7.828;2022-09-09T08:33:46;18.80;99.90
7998;DHT22;4044;49.814;7.828;2022-09-09T08:36:18;19.00;99.90
7998;DHT22;4044;49.814;7.828;2022-09-09T08:38:46;19.00;99.90
7998;DHT22;4044;49.814;7.828;2022-09-09T08:54:53;19.30;99.90
7998;DHT22;4044;49.814;7.828;2022-09-09T08:57:26;19.50;99.90
7998;DHT22;4044;49.814;7.828;2022-09-09T08:59:54;19.80;99.90
7998;DHT22;4044;49.814;7.828;2022-09-09T09:09:00;20.20;99.90
7998;DHT22;4044;49.814;7.828;2022-09-09T09:11:24;20.00;99.90
7998;DHT22;4044;49.814;7.828;2022-09-09T09:14:03;20.10;99.90
7998;DHT22;4044;49.814;7.828;2022-09-09T09:16:48;20.30;99.90
7998;DHT22;4044;49.814;7.828;2022-09-09T09:19:16;20.30;99.90
7998;DHT22;4044;49.814;7.828;2022-09-09T09:22:15;20.50;99.90
7998;DHT22;4044;49.814;7.828;2022-09-09T09:24:50;20.60;99.90
7998;DHT22;4044;49.814;7.828;2022-09-09T09:27:30;20.50;99.90
7998;DHT22;4044;49.814;7.828;2022-09-09T09:30:02;20.50;99.90
7998;DHT22;4044;49.814;7.828;2022-09-09T09:32:31;19.60;99.90
7998;DHT22;4044;49.814;7.828;2022-09-09T09:34:58;19.10;99.90
7998;DHT22;4044;49.814;7.828;2022-09-09T09:37:33;18.90;99.90
7998;DHT22;4044;49.814;7.828;2022-09-09T09:40:13;18.70;99.90
7998;DHT22;4044;49.814;7.828;2022-09-09T09:43:17;18.80;99.90
7998;DHT22;4044;49.814;7.828;2022-09-09T09:45:45;18.70;99.90
7998;DHT22;4044;49.814;7.828;2022-09-09T09:48:12;18.60;99.90
7998;DHT22;4044;49.814;7.828;2022-09-09T09:50:59;18.50;99.90
7998;DHT22;4044;49.814;7.828;2022-09-09T09:53:31;18.50;99.90
7998;DHT22;4044;49.814;7.828;2022-09-09T09:56:05;18.60;99.90
7998;DHT22;4044;49.814;7.828;2022-09-09T09:58:36;18.60;99.90
7998;DHT22;4044;49.814;7.828;2022-09-09T10:01:02;18.70;99.90
7998;DHT22;4044;49.814;7.828;2022-09-09T10:03:32;18.70;99.90
7998;DHT22;4044;49.814;7.828;2022-09-09T10:05:58;18.70;99.90
7998;DHT22;4044;49.814;7.828;2022-09-09T10:08:26;18.80;99.90
7998;DHT22;4044;49.814;7.828;2022-09-09T10:13:39;19.50;99.90
7998;DHT22;4044;49.814;7.828;2022-09-09T10:26:51;21.00;98.40
7998;DHT22;4044;49.814;7.828;2022-09-09T10:37:41;21.20;94.50
7998;DHT22;4044;49.814;7.828;2022-09-09T10:40:22;21.30;94.00
7998;DHT22;4044;49.814;7.828;2022-09-09T10:42:51;21.30;94.00
7998;DHT22;4044;49.814;7.828;2022-09-09T10:48:46;21.60;94.80
7998;DHT22;4044;49.814;7.828;2022-09-09T10:51:22;21.70;93.70
7998;DHT22;4044;49.814;7.828;2022-09-09T10:53:53;21.70;93.10
7998;DHT22;4044;49.814;7.828;2022-09-09T10:56:23;22.10;93.90
7998;DHT22;4044;49.814;7.828;2022-09-09T10:58:54;22.10;93.30
7998;DHT22;4044;49.814;7.828;2022-09-09T11:01:25;21.80;92.40
7998;DHT22;4044;49.814;7.828;2022-09-09T11:03:56;21.70;93.40
7998;DHT22;4044;49.814;7.828;2022-09-09T11:06:29;21.80;93.00
7998;DHT22;4044;49.814;7.828;2022-09-09T11:08:57;21.90;93.00
7998;DHT22;4044;49.814;7.828;2022-09-09T11:11:36;22.20;93.00
7998;DHT22;4044;49.814;7.828;2022-09-09T11:14:19;22.40;92.70
7998;DHT22;4044;49.814;7.828;2022-09-09T11:19:28;22.40;92.60
7998;DHT22;4044;49.814;7.828;2022-09-09T11:21:58;22.10;93.80
7998;DHT22;4044;49.814;7.828;2022-09-09T11:24:35;21.20;94.80
7998;DHT22;4044;49.814;7.828;2022-09-09T11:35:43;18.60;99.90
7998;DHT22;4044;49.814;7.828;2022-09-09T11:38:33;17.90;99.90
7998;DHT22;4044;49.814;7.828;2022-09-09T11:41:05;17.40;99.90
7998;DHT22;4044;49.814;7.828;2022-09-09T11:43:39;16.70;99.90
7998;DHT22;4044;49.814;7.828;2022-09-09T11:46:05;16.40;99.90
7998;DHT22;4044;49.814;7.828;2022-09-09T11:51:04;16.50;99.90
7998;DHT22;4044;49.814;7.828;2022-09-09T11:53:31;16.70;99.90
7998;DHT22;4044;49.814;7.828;2022-09-09T11:58:40;16.90;99.90
7998;DHT22;4044;49.814;7.828;2022-09-09T12:01:30;16.70;99.90
7998;DHT22;4044;49.814;7.828;2022-09-09T12:04:27;16.40;99.90
7998;DHT22;4044;49.814;7.828;2022-09-09T12:07:20;16.50;99.90
7998;DHT22;4044;49.814;7.828;2022-09-09T12:09:52;16.60;99.90
7998;DHT22;4044;49.814;7.828;2022-09-09T12:15:02;18.80;99.90
7998;DHT22;4044;49.814;7.828;2022-09-09T12:17:30;20.20;99.90
7998;DHT22;4044;49.814;7.828;2022-09-09T12:20:21;20.70;99.90
7998;DHT22;4044;49.814;7.828;2022-09-09T12:26:00;21.40;99.90
7998;DHT22;4044;49.814;7.828;2022-09-09T12:34:08;23.80;99.90
7998;DHT22;4044;49.814;7.828;2022-09-09T12:36:35;24.60;99.90
7998;DHT22;4044;49.814;7.828;2022-09-09T12:39:32;24.60;99.90
7998;DHT22;4044;49.814;7.828;2022-09-09T12:41:56;25.20;99.90
7998;DHT22;4044;49.814;7.828;2022-09-09T12:44:23;26.30;99.90
7998;DHT22;4044;49.814;7.828;2022-09-09T12:46:49;26.50;99.90
7998;DHT22;4044;49.814;7.828;2022-09-09T12:49:29;27.50;99.90
7998;DHT22;4044;49.814;7.828;2022-09-09T12:52:02;28.30;94.60
7998;DHT22;4044;49.814;7.828;2022-09-09T12:54:31;28.10;97.10
7998;DHT22;4044;49.814;7.828;2022-09-09T12:56:57;28.20;93.90
7998;DHT22;4044;49.814;7.828;2022-09-09T12:59:38;27.40;91.10
7998;DHT22;4044;49.814;7.828;2022-09-09T13:02:25;25.40;90.80
7998;DHT22;4044;49.814;7.828;2022-09-09T13:04:51;24.30;91.60
7998;DHT22;4044;49.814;7.828;2022-09-09T13:07:18;23.60;93.20
7998;DHT22;4044;49.814;7.828;2022-09-09T13:09:46;23.10;94.50
7998;DHT22;4044;49.814;7.828;2022-09-09T13:12:20;22.80;95.70
7998;DHT22;4044;49.814;7.828;2022-09-09T13:14:50;22.70;96.50
7998;DHT22;4044;49.814;7.828;2022-09-09T13:17:37;22.10;96.50
7998;DHT22;4044;49.814;7.828;2022-09-09T13:20:04;21.70;95.20
7998;DHT22;4044;49.814;7.828;2022-09-09T13:22:34;21.30;96.20
7998;DHT22;4044;49.814;7.828;2022-09-09T13:27:34;20.00;99.90
7998;DHT22;4044;49.814;7.828;2022-09-09T13:30:00;19.30;99.90
7998;DHT22;4044;49.814;7.828;2022-09-09T13:32:28;18.70;99.90
7998;DHT22;4044;49.814;7.828;2022-09-09T13:34:58;18.50;99.90
7998;DHT22;4044;49.814;7.828;2022-09-09T13:37:32;18.30;99.90
7998;DHT22;4044;49.814;7.828;2022-09-09T13:39:58;18.10;99.90
7998;DHT22;4044;49.814;7.828;2022-09-09T13:42:32;17.80;99.90
7998;DHT22;4044;49.814;7.828;2022-09-09T13:45:00;17.50;99.90
7998;DHT22;4044;49.814;7.828;2022-09-09T13:47:32;17.50;99.90
7998;DHT22;4044;49.814;7.828;2022-09-09T13:50:18;17.60;99.90
7998;DHT22;4044;49.814;7.828;2022-09-09T13:52:44;17.80;99.90
7998;DHT22;4044;49.814;7.828;2022-09-09T13:55:10;17.90;99.90
7998;DHT22;4044;49.814;7.828;2022-09-09T13:57:35;18.00;99.90
7998;DHT22;4044;49.814;7.828;2022-09-09T14:00:01;18.00;99.90
7998;DHT22;4044;49.814;7.828;2022-09-09T14:02:26;18.20;99.90
7998;DHT22;4044;49.814;7.828;2022-09-09T14:04:52;18.10;99.90
7998;DHT22;4044;49.814;7.828;2022-09-09T14:07:21;18.20;99.90
7998;DHT22;4044;49.814;7.828;2022-09-09T14:09:46;18.40;99.90
7998;DHT22;4044;49.814;7.828;2022-09-09T14:12:15;18.50;99.90
7998;DHT22;4044;49.814;7.828;2022-09-09T14:14:42;18.80;99.90
7998;DHT22;4044;49.814;7.828;2022-09-09T14:17:08;19.30;99.90
7998;DHT22;4044;49.814;7.828;2022-09-09T14:19:34;19.40;99.90
7998;DHT22;4044;49.814;7.828;2022-09-09T14:21:59;19.80;99.90
7998;DHT22;4044;49.814;7.828;2022-09-09T14:24:26;19.70;99.90
7998;DHT22;4044;49.814;7.828;2022-09-09T14:26:53;19.80;99.90
7998;DHT22;4044;49.814;7.828;2022-09-09T14:29:18;20.00;99.90
7998;DHT22;4044;49.814;7.828;2022-09-09T14:31:44;19.90;99.90
7998;DHT22;4044;49.814;7.828;2022-09-09T14:34:09;19.80;99.90
7998;DHT22;4044;49.814;7.828;2022-09-09T14:36:36;19.70;99.90
7998;DHT22;4044;49.814;7.828;2022-09-09T14:39:03;19.80;99.90
7998;DHT22;4044;49.814;7.828;2022-09-09T14:41:29;19.80;99.90
7998;DHT22;4044;49.814;7.828;2022-09-09T14:43:55;19.70;99.90
7998;DHT22;4044;49.814;7.828;2022-09-09T14:46:21;19.70;99.90
7998;DHT22;4044;49.814;7.828;2022-09-09T14:48:47;19.50;99.90
7998;DHT22;4044;49.814;7.828;2022-09-09T14:51:21;19.60;99.90
7998;DHT22;4044;49.814;7.828;2022-09-09T14:53:48;19.60;99.90
7998;DHT22;4044;49.814;7.828;2022-09-09T14:56:17;19.60;99.90
7998;DHT22;4044;49.814;7.828;2022-09-09T14:58:44;19.50;99.90
7998;DHT22;4044;49.814;7.828;2022-09-09T15:01:12;19.50;99.90
7998;DHT22;4044;49.814;7.828;2022-09-09T15:03:41;19.50;99.90
7998;DHT22;4044;49.814;7.828;2022-09-09T15:06:12;19.50;99.90
7998;DHT22;4044;49.814;7.828;2022-09-09T15:08:41;19.40;99.90
7998;DHT22;4044;49.814;7.828;2022-09-09T15:11:07;19.30;99.90
7998;DHT22;4044;49.814;7.828;2022-09-09T15:13:34;19.00;99.90
7998;DHT22;4044;49.814;7.828;2022-09-09T15:16:06;18.60;99.90
7998;DHT22;4044;49.814;7.828;2022-09-09T15:18:32;18.20;99.90
7998;DHT22;4044;49.814;7.828;2022-09-09T15:20:59;18.10;99.90
7998;DHT22;4044;49.814;7.828;2022-09-09T15:23:26;18.10;99.90
7998;DHT22;4044;49.814;7.828;2022-09-09T15:25:53;18.20;99.90
7998;DHT22;4044;49.814;7.828;2022-09-09T15:28:20;18.10;99.90
7998;DHT22;4044;49.814;7.828;2022-09-09T15:30:49;18.10;99.90
7998;DHT22;4044;49.814;7.828;2022-09-09T15:33:15;18.30;99.90
7998;DHT22;4044;49.814;7.828;2022-09-09T15:35:41;18.50;99.90
7998;DHT22;4044;49.814;7.828;2022-09-09T15:38:06;18.70;99.90
7998;DHT22;4044;49.814;7.828;2022-09-09T15:40:32;19.00;99.90
7998;DHT22;4044;49.814;7.828;2022-09-09T15:42:58;19.10;99.90
7998;DHT22;4044;49.814;7.828;2022-09-09T15:45:24;19.00;99.90
7998;DHT22;4044;49.814;7.828;2022-09-09T15:47:49;19.10;99.90
7998;DHT22;4044;49.814;7.828;2022-09-09T15:50:15;19.20;99.90
7998;DHT22;4044;49.814;7.828;2022-09-09T15:52:40;19.30;99.90
7998;DHT22;4044;49.814;7.828;2022-09-09T15:55:06;19.10;99.90
7998;DHT22;4044;49.814;7.828;2022-09-09T15:57:33;18.90;99.90
7998;DHT22;4044;49.814;7.828;2022-09-09T16:00:01;18.60;99.90
7998;DHT22;4044;49.814;7.828;2022-09-09T16:02:28;18.30;99.90
7998;DHT22;4044;49.814;7.828;2022-09-09T16:04:53;17.90;99.90
7998;DHT22;4044;49.814;7.828;2022-09-09T16:07:18;17.70;99.90
7998;DHT22;4044;49.814;7.828;2022-09-09T16:09:44;17.60;99.90
7998;DHT22;4044;49.814;7.828;2022-09-09T16:12:09;17.30;99.90
7998;DHT22;4044;49.814;7.828;2022-09-09T16:14:38;17.30;99.90
7998;DHT22;4044;49.814;7.828;2022-09-09T16:17:05;17.20;99.90
7998;DHT22;4044;49.814;7.828;2022-09-09T16:19:31;17.00;99.90
7998;DHT22;4044;49.814;7.828;2022-09-09T16:21:56;16.60;99.90
7998;DHT22;4044;49.814;7.828;2022-09-09T16:24:22;16.40;99.90
7998;DHT22;4044;49.814;7.828;2022-09-09T16:26:51;16.20;99.90
7998;DHT22;4044;49.814;7.828;2022-09-09T16:29:18;16.10;99.90
7998;DHT22;4044;49.814;7.828;2022-09-09T16:31:45;15.90;99.90
7998;DHT22;4044;49.814;7.828;2022-09-09T16:34:11;15.90;99.90
7998;DHT22;4044;49.814;7.828;2022-09-09T16:36:38;16.00;99.90
7998;DHT22;4044;49.814;7.828;2022-09-09T16:39:08;16.00;99.90
7998;DHT22;4044;49.814;7.828;2022-09-09T16:41:35;16.10;99.90
7998;DHT22;4044;49.814;7.828;2022-09-09T16:44:03;16.10;99.90
7998;DHT22;4044;49.814;7.828;2022-09-09T16:46:31;16.30;99.90
7998;DHT22;4044;49.814;7.828;2022-09-09T16:48:58;16.30;99.90
7998;DHT22;4044;49.814;7.828;2022-09-09T16:51:34;16.10;99.90
7998;DHT22;4044;49.814;7.828;2022-09-09T16:54:02;16.00;99.90
7998;DHT22;4044;49.814;7.828;2022-09-09T16:56:30;16.10;99.90
7998;DHT22;4044;49.814;7.828;2022-09-09T16:58:59;16.10;99.90
7998;DHT22;4044;49.814;7.828;2022-09-09T17:01:28;16.00;99.90
7998;DHT22;4044;49.814;7.828;2022-09-09T17:03:54;15.90;99.90
7998;DHT22;4044;49.814;7.828;2022-09-09T17:06:21;16.00;99.90
7998;DHT22;4044;49.814;7.828;2022-09-09T17:08:46;16.10;99.90
7998;DHT22;4044;49.814;7.828;2022-09-09T17:11:15;16.10;99.90
7998;DHT22;4044;49.814;7.828;2022-09-09T17:13:42;16.20;99.90
7998;DHT22;4044;49.814;7.828;2022-09-09T17:16:08;16.20;99.90
7998;DHT22;4044;49.814;7.828;2022-09-09T17:18:34;16.20;99.90
7998;DHT22;4044;49.814;7.828;2022-09-09T17:21:08;16.30;99.90
7998;DHT22;4044;49.814;7.828;2022-09-09T17:23:35;16.30;99.90
7998;DHT22;4044;49.814;7.828;2022-09-09T17:26:04;16.20;99.90
7998;DHT22;4044;49.814;7.828;2022-09-09T17:28:30;16.30;99.90
7998;DHT22;4044;49.814;7.828;2022-09-09T17:31:00;16.30;99.90
7998;DHT22;4044;49.814;7.828;2022-09-09T17:33:30;16.40;99.90
7998;DHT22;4044;49.814;7.828;2022-09-09T17:35:57;16.40;99.90
7998;DHT22;4044;49.814;7.828;2022-09-09T17:38:24;16.40;99.90
7998;DHT22;4044;49.814;7.828;2022-09-09T17:40:50;16.40;99.90
7998;DHT22;4044;49.814;7.828;2022-09-09T17:43:25;16.30;99.90
7998;DHT22;4044;49.814;7.828;2022-09-09T17:45:51;16.30;99.90
7998;DHT22;4044;49.814;7.828;2022-09-09T17:48:16;16.30;99.90
7998;DHT22;4044;49.814;7.828;2022-09-09T17:50:42;16.30;99.90
7998;DHT22;4044;49.814;7.828;2022-09-09T17:53:07;16.30;99.90
7998;DHT22;4044;49.814;7.828;2022-09-09T17:55:33;16.20;99.90
7998;DHT22;4044;49.814;7.828;2022-09-09T17:57:58;16.20;99.90
7998;DHT22;4044;49.814;7.828;2022-09-09T18:00:24;16.20;99.90
7998;DHT22;4044;49.814;7.828;2022-09-09T18:02:49;16.20;99.90
7998;DHT22;4044;49.814;7.828;2022-09-09T18:05:15;16.20;99.90